Time;durP1;ratioP1;P1;durP2;ratioP2;P2;SDS_P1;SDS_P2;PMS_P1;PMS_P2;Temp;Humidity;BMP_temperature;BMP_pressure;BME280_temperature;BME280_humidity;BME280_pressure;Samples;Min_cycle;Max_cycle;Signal;HPM_P1;HPM_P2
2023/05/31 00:01:16;;;;;;;0.20;0.20;;;9.80;75.60;;;;;;5033050;28;20120;-87
2023/05/31 00:03:43;;;;;;;0.23;0.23;;;9.80;75.60;;;;;;4994578;28;20056;-86
2023/05/31 00:06:09;;;;;;;;;;;9.70;78.00;;;;;;4980509;28;20144;-87
2023/05/31 00:08:35;;;;;;;0.93;0.50;;;9.70;85.50;;;;;;4995380;28;19932;-86
2023/05/31 00:11:01;;;;;;;0.63;0.50;;;9.70;77.60;;;;;;5023130;28;20045;-86
2023/05/31 00:13:26;;;;;;;0.20;0.20;;;9.60;78.90;;;;;;5030968;28;20048;-86
2023/05/31 00:15:52;;;;;;;0.30;0.30;;;9.60;79.20;;;;;;5015083;28;20084;-87
2023/05/31 00:18:18;;;;;;;0.00;0.00;;;9.60;79.60;;;;;;4999075;28;20112;-87
2023/05/31 00:20:43;;;;;;;0.47;0.47;;;9.50;79.20;;;;;;4995306;28;20046;-87
2023/05/31 00:23:10;;;;;;;0.37;0.20;;;9.40;83.40;;;;;;5013030;28;20052;-87
2023/05/31 00:25:36;;;;;;;0.52;0.28;;;9.40;87.20;;;;;;4995146;28;20050;-86
2023/05/31 00:28:01;;;;;;;0.17;0.17;;;9.40;87.40;;;;;;5019644;28;20479;-86
2023/05/31 00:30:28;;;;;;;0.68;0.40;;;9.40;91.40;;;;;;5012365;28;20050;-87
2023/05/31 00:32:53;;;;;;;0.73;0.40;;;9.40;92.80;;;;;;5026381;28;20077;-87
2023/05/31 00:35:19;;;;;;;0.77;0.77;;;9.40;91.00;;;;;;4995682;28;20049;-87
2023/05/31 00:37:45;;;;;;;0.37;0.30;;;9.50;91.70;;;;;;4995024;28;20483;-86
2023/05/31 00:40:10;;;;;;;0.50;0.50;;;9.40;91.60;;;;;;5013342;28;20061;-86
2023/05/31 00:42:36;;;;;;;0.33;0.30;;;9.40;91.70;;;;;;4996919;28;20053;-86
2023/05/31 00:45:02;;;;;;;0.27;0.27;;;9.40;92.20;;;;;;5014995;28;20053;-87
2023/05/31 00:47:28;;;;;;;0.30;0.30;;;9.40;91.70;;;;;;5017724;28;20099;-85
2023/05/31 00:49:56;;;;;;;0.20;0.20;;;9.40;92.00;;;;;;4995541;28;20052;-86
2023/05/31 00:52:22;;;;;;;0.50;0.43;;;9.40;92.90;;;;;;5014071;28;20041;-87
2023/05/31 00:54:49;;;;;;;0.40;0.30;;;9.40;92.40;;;;;;5013043;28;20052;-87
2023/05/31 00:57:14;;;;;;;0.10;0.10;;;9.40;92.40;;;;;;4983356;28;20081;-86
2023/05/31 00:59:40;;;;;;;1.07;0.80;;;9.40;93.30;;;;;;5015357;28;20135;-86
2023/05/31 01:02:07;;;;;;;0.20;0.20;;;9.40;92.30;;;;;;4983258;28;20064;-87
2023/05/31 01:04:32;;;;;;;0.25;0.25;;;9.40;92.50;;;;;;5031915;28;20042;-86
2023/05/31 01:07:01;;;;;;;0.63;0.63;;;9.40;91.70;;;;;;4998745;28;20057;-85
2023/05/31 01:09:30;;;;;;;0.93;0.68;;;9.40;91.50;;;;;;5013419;28;20288;-84
2023/05/31 01:12:11;;;;;;;0.40;0.40;;;9.30;91.70;;;;;;4996681;28;20054;-86
2023/05/31 01:14:55;;;;;;;0.25;0.25;;;9.30;91.00;;;;;;5013996;28;20080;-86
2023/05/31 01:17:46;;;;;;;0.08;0.08;;;9.30;91.00;;;;;;5014776;28;20056;-87
2023/05/31 01:20:15;;;;;;;0.40;0.40;;;9.30;91.10;;;;;;4998520;28;20053;-87
2023/05/31 01:23:04;;;;;;;0.52;0.38;;;9.30;91.00;;;;;;4997597;28;20053;-87
2023/05/31 01:25:58;;;;;;;0.77;0.40;;;9.20;86.60;;;;;;4996839;28;20042;-86
2023/05/31 01:28:26;;;;;;;0.52;0.20;;;9.10;83.00;;;;;;4995256;28;20452;-87
2023/05/31 01:30:53;;;;;;;0.25;0.25;;;9.20;85.30;;;;;;5011686;28;20069;-86
2023/05/31 01:33:20;;;;;;;0.73;0.73;;;9.10;87.30;;;;;;5012579;28;20452;-87
2023/05/31 01:35:46;;;;;;;0.30;0.25;;;9.10;89.70;;;;;;4994027;28;20057;-86
2023/05/31 01:38:11;;;;;;;0.57;0.53;;;9.10;87.00;;;;;;5031950;28;20396;-87
2023/05/31 01:40:38;;;;;;;1.30;0.27;;;9.10;88.80;;;;;;5012686;28;20128;-87
2023/05/31 01:43:05;;;;;;;0.40;0.25;;;9.00;90.60;;;;;;4996997;28;20053;-87
2023/05/31 01:45:33;;;;;;;0.30;0.30;;;9.00;89.90;;;;;;5031288;28;20045;-85
2023/05/31 01:48:05;;;;;;;0.20;0.20;;;9.00;91.10;;;;;;5014469;28;20087;-87
2023/05/31 01:50:36;;;;;;;0.45;0.45;;;9.00;91.10;;;;;;4997355;28;20061;-84
2023/05/31 01:53:02;;;;;;;0.30;0.30;;;9.00;91.00;;;;;;5014746;28;20049;-87
2023/05/31 01:55:28;;;;;;;1.35;0.40;;;8.90;90.70;;;;;;5013963;28;20052;-87
2023/05/31 01:57:55;;;;;;;0.70;0.50;;;8.90;90.40;;;;;;5031324;28;20045;-87
2023/05/31 02:00:23;;;;;;;0.43;0.38;;;8.80;88.30;;;;;;5014136;28;20416;-87
2023/05/31 02:02:50;;;;;;;0.63;0.45;;;8.80;88.50;;;;;;4999784;28;20053;-86
2023/05/31 02:05:16;;;;;;;0.63;0.30;;;8.80;87.70;;;;;;5016160;28;20054;-87
2023/05/31 02:07:44;;;;;;;1.07;0.57;;;8.80;88.30;;;;;;5001107;28;20052;-86
2023/05/31 02:10:11;;;;;;;0.63;0.30;;;8.70;90.10;;;;;;5017695;28;20072;-87
2023/05/31 02:12:37;;;;;;;0.30;0.30;;;8.70;88.90;;;;;;5015338;28;20549;-87
2023/05/31 02:15:04;;;;;;;0.70;0.40;;;8.70;87.70;;;;;;5035279;28;20403;-86
2023/05/31 02:17:32;;;;;;;0.88;0.40;;;8.60;88.20;;;;;;5017775;28;20049;-87
2023/05/31 02:19:59;;;;;;;0.52;0.52;;;8.60;89.50;;;;;;5033790;28;20049;-87
2023/05/31 02:22:25;;;;;;;0.20;0.20;;;8.60;90.20;;;;;;5017302;28;20056;-87
2023/05/31 02:24:50;;;;;;;0.52;0.52;;;8.60;91.00;;;;;;5000768;28;20065;-86
2023/05/31 02:27:16;;;;;;;0.73;0.73;;;8.60;91.00;;;;;;5034766;28;20053;-86
2023/05/31 02:29:45;;;;;;;0.80;0.57;;;8.60;91.50;;;;;;5034765;28;20046;-87
2023/05/31 02:32:11;;;;;;;0.80;0.65;;;8.60;92.10;;;;;;5016520;28;20079;-86
2023/05/31 02:34:37;;;;;;;0.53;0.53;;;8.60;92.70;;;;;;5016748;28;20045;-84
2023/05/31 02:37:03;;;;;;;0.17;0.17;;;8.50;92.90;;;;;;5017535;28;20049;-86
2023/05/31 02:39:29;;;;;;;0.30;0.30;;;8.50;93.40;;;;;;5034875;28;20391;-87
2023/05/31 02:41:55;;;;;;;0.40;0.40;;;8.50;93.60;;;;;;5015625;28;20049;-86
2023/05/31 02:44:21;;;;;;;0.20;0.20;;;8.50;94.20;;;;;;5034686;28;20280;-86
2023/05/31 02:46:46;;;;;;;0.10;0.07;;;8.50;95.00;;;;;;5015175;28;20057;-86
2023/05/31 02:49:12;;;;;;;0.33;0.33;;;8.50;95.20;;;;;;5034529;28;20045;-86
2023/05/31 02:51:38;;;;;;;1.80;0.30;;;8.50;96.00;;;;;;5016726;28;20049;-83
2023/05/31 02:54:04;;;;;;;0.87;0.50;;;8.50;96.00;;;;;;5034207;28;20074;-86
2023/05/31 02:56:29;;;;;;;0.00;0.00;;;8.50;96.60;;;;;;5016760;28;20627;-86
2023/05/31 02:58:56;;;;;;;0.20;0.20;;;8.50;95.60;;;;;;5016418;28;20049;-86
2023/05/31 03:01:21;;;;;;;0.57;0.35;;;8.50;97.60;;;;;;5033552;28;20111;-85
2023/05/31 03:03:47;;;;;;;0.53;0.30;;;8.40;98.80;;;;;;4996781;28;20045;-85
2023/05/31 03:06:19;;;;;;;0.40;0.40;;;8.40;99.90;;;;;;4997061;28;20101;-86
2023/05/31 03:08:45;;;;;;;1.38;0.50;;;8.30;99.90;;;;;;4981363;28;20069;-86
2023/05/31 03:11:10;;;;;;;0.47;0.47;;;8.40;99.90;;;;;;5013386;28;20096;-86
2023/05/31 03:13:36;;;;;;;0.40;0.40;;;8.40;99.90;;;;;;5011831;28;20049;-86
2023/05/31 03:16:02;;;;;;;0.50;0.50;;;8.40;99.90;;;;;;4999552;28;20049;-86
2023/05/31 03:18:27;;;;;;;0.30;0.30;;;8.40;99.90;;;;;;5015199;28;20045;-86
2023/05/31 03:20:53;;;;;;;1.17;0.33;;;8.40;99.90;;;;;;5016002;28;20052;-86
2023/05/31 03:23:19;;;;;;;0.23;0.20;;;8.40;99.60;;;;;;5000110;28;20104;-86
2023/05/31 03:25:44;;;;;;;0.77;0.43;;;8.50;99.90;;;;;;5033358;28;20068;-85
2023/05/31 03:28:10;;;;;;;0.73;0.73;;;8.50;99.30;;;;;;5034104;28;20091;-85
2023/05/31 03:30:36;;;;;;;0.27;0.27;;;8.40;97.80;;;;;;5015004;28;20041;-86
2023/05/31 03:33:02;;;;;;;0.20;0.20;;;8.40;98.40;;;;;;4999401;28;20115;-86
2023/05/31 03:35:28;;;;;;;0.82;0.82;;;8.40;99.90;;;;;;5033555;28;20124;-86
2023/05/31 03:37:54;;;;;;;0.20;0.20;;;8.50;99.90;;;;;;5015918;28;20176;-86
2023/05/31 03:40:20;;;;;;;0.73;0.70;;;8.50;99.90;;;;;;4999735;28;20061;-87
2023/05/31 03:42:45;;;;;;;1.33;0.60;;;8.50;99.90;;;;;;4997886;28;20126;-84
2023/05/31 03:45:11;;;;;;;0.67;0.50;;;8.50;99.00;;;;;;5005112;28;20100;-86
2023/05/31 03:47:37;;;;;;;0.30;0.30;;;8.40;98.20;;;;;;5002947;28;20042;-87
2023/05/31 03:50:06;;;;;;;0.20;0.20;;;8.40;99.30;;;;;;5032889;28;20132;-86
2023/05/31 03:52:32;;;;;;;0.30;0.30;;;8.30;99.90;;;;;;5033453;28;20048;-86
2023/05/31 03:54:57;;;;;;;0.77;0.30;;;8.30;99.90;;;;;;5031718;28;20495;-86
2023/05/31 03:57:23;;;;;;;1.50;0.30;;;8.30;99.90;;;;;;5033268;28;20180;-86
2023/05/31 03:59:48;;;;;;;0.63;0.43;;;8.40;99.90;;;;;;5032971;28;20056;-86
2023/05/31 04:02:14;;;;;;;0.30;0.30;;;8.40;99.90;;;;;;4999606;28;20194;-85
2023/05/31 04:04:40;;;;;;;1.37;0.50;;;8.50;99.90;;;;;;5033508;28;20038;-86
2023/05/31 04:07:06;;;;;;;0.20;0.17;;;8.40;99.90;;;;;;5014913;28;20511;-87
2023/05/31 04:09:32;;;;;;;0.20;0.20;;;8.40;99.90;;;;;;5032028;28;20049;-86
2023/05/31 04:11:58;;;;;;;0.33;0.30;;;8.50;99.90;;;;;;5031511;28;20053;-87
2023/05/31 04:14:24;;;;;;;0.20;0.20;;;8.50;99.90;;;;;;4998059;28;20049;-87
2023/05/31 04:16:50;;;;;;;0.30;0.30;;;8.50;99.90;;;;;;5013112;28;20136;-85
2023/05/31 04:19:15;;;;;;;1.35;0.75;;;8.60;99.90;;;;;;5033089;28;20490;-86
2023/05/31 04:21:41;;;;;;;0.50;0.50;;;8.60;99.90;;;;;;5032758;28;20045;-87
2023/05/31 04:24:07;;;;;;;0.73;0.73;;;8.60;99.90;;;;;;4997162;28;20042;-87
2023/05/31 04:26:33;;;;;;;0.40;0.40;;;8.60;99.90;;;;;;4995721;28;20050;-87
2023/05/31 04:28:58;;;;;;;0.57;0.57;;;8.70;99.90;;;;;;4995273;28;20053;-86
2023/05/31 04:31:25;;;;;;;0.53;0.47;;;8.70;99.90;;;;;;5013185;28;20062;-87
2023/05/31 04:33:53;;;;;;;0.30;0.30;;;8.80;99.90;;;;;;4995433;28;20041;-85
2023/05/31 04:36:20;;;;;;;0.40;0.40;;;8.80;99.90;;;;;;4995578;28;20072;-87
2023/05/31 04:38:47;;;;;;;0.40;0.38;;;8.80;99.90;;;;;;5027940;28;20045;-87
2023/05/31 04:41:15;;;;;;;0.28;0.28;;;8.90;99.90;;;;;;5032103;28;20138;-86
2023/05/31 04:43:42;;;;;;;0.17;0.17;;;9.00;99.90;;;;;;4990120;28;20620;-87
2023/05/31 04:46:09;;;;;;;;;;;9.00;99.90;;;;;;4995371;28;20539;-87
2023/05/31 04:48:36;;;;;;;0.65;0.65;;;9.10;99.90;;;;;;4995332;28;19933;-87
2023/05/31 04:51:03;;;;;;;0.28;0.20;;;9.20;99.90;;;;;;4978710;28;20085;-87
2023/05/31 04:53:30;;;;;;;0.30;0.30;;;9.20;99.90;;;;;;4995178;28;20054;-87
2023/05/31 04:55:55;;;;;;;0.32;0.32;;;9.30;99.90;;;;;;4994396;28;20046;-86
2023/05/31 04:58:21;;;;;;;0.50;0.50;;;9.40;99.90;;;;;;5012669;28;20049;-86
2023/05/31 05:00:47;;;;;;;0.63;0.40;;;9.60;99.90;;;;;;5013383;28;20041;-87
2023/05/31 05:03:13;;;;;;;0.77;0.50;;;9.60;99.90;;;;;;4994606;28;20049;-86
2023/05/31 05:05:39;;;;;;;;;;;9.80;99.90;;;;;;4979435;28;20053;-87
2023/05/31 05:08:05;;;;;;;0.38;0.30;;;10.40;99.90;;;;;;5011813;28;20015;-86
2023/05/31 05:10:31;;;;;;;0.93;0.73;;;11.30;99.90;;;;;;4995543;28;20130;-86
2023/05/31 05:12:57;;;;;;;0.10;0.10;;;12.00;99.90;;;;;;5000961;28;20110;-84
2023/05/31 05:15:22;;;;;;;0.33;0.33;;;12.70;93.70;;;;;;5013140;28;20049;-87
2023/05/31 05:17:48;;;;;;;0.70;0.67;;;13.20;79.50;;;;;;4998367;28;20054;-87
2023/05/31 05:20:14;;;;;;;1.30;0.55;;;13.70;51.80;;;;;;5014263;28;20060;-86
2023/05/31 05:22:41;;;;;;;0.40;0.40;;;14.10;30.50;;;;;;5012175;28;20488;-87
2023/05/31 05:25:07;;;;;;;1.65;0.82;;;14.50;13.20;;;;;;4995667;28;20064;-84
2023/05/31 05:27:33;;;;;;;0.47;0.43;;;14.90;7.00;;;;;;5020324;28;20050;-91
2023/05/31 05:29:59;;;;;;;1.73;0.87;;;15.20;1.00;;;;;;5037174;28;20037;-90
2023/05/31 05:32:24;;;;;;;0.30;0.30;;;15.40;1.00;;;;;;5016997;28;20049;-92
2023/05/31 05:34:50;;;;;;;0.37;0.37;;;15.50;1.00;;;;;;5013108;28;20057;-90
2023/05/31 05:37:16;;;;;;;2.88;0.50;;;15.70;1.00;;;;;;5033386;28;20049;-92
2023/05/31 05:39:41;;;;;;;1.20;0.57;;;15.90;1.00;;;;;;5003022;28;20048;-92
2023/05/31 05:42:07;;;;;;;0.77;0.77;;;16.10;1.00;;;;;;4995972;28;20488;-92
2023/05/31 05:44:33;;;;;;;0.57;0.47;;;16.20;1.00;;;;;;4992105;28;20072;-91
2023/05/31 05:46:59;;;;;;;1.17;0.30;;;16.20;1.00;;;;;;5016175;28;20122;-86
2023/05/31 05:49:25;;;;;;;0.55;0.55;;;16.50;1.00;;;;;;5016962;28;20472;-94
2023/05/31 05:51:50;;;;;;;0.40;0.40;;;16.70;1.00;;;;;;5010706;28;20541;-92
2023/05/31 05:54:16;;;;;;;0.38;0.35;;;17.00;1.00;;;;;;5031944;28;20045;-91
2023/05/31 05:56:42;;;;;;;0.40;0.40;;;17.10;1.00;;;;;;5017759;28;20041;-95
2023/05/31 05:59:08;;;;;;;0.40;0.37;;;17.30;1.00;;;;;;4987743;28;20341;-92
2023/05/31 06:01:35;;;;;;;0.75;0.52;;;17.50;1.00;;;;;;5036941;28;20077;-92
2023/05/31 06:04:01;;;;;;;0.43;0.40;;;17.50;1.00;;;;;;5020586;28;20049;-87
2023/05/31 06:06:27;;;;;;;0.47;0.47;;;17.70;1.00;;;;;;5018769;28;20058;-90
2023/05/31 06:08:52;;;;;;;1.08;0.60;;;17.90;1.00;;;;;;5009363;28;20042;-88
2023/05/31 06:11:18;;;;;;;0.77;0.65;;;18.00;1.00;;;;;;5000910;28;20484;-87
2023/05/31 06:13:44;;;;;;;0.20;0.20;;;18.00;1.00;;;;;;5018097;28;20065;-91
2023/05/31 06:16:10;;;;;;;0.93;0.75;;;18.20;1.00;;;;;;5028374;28;20053;-87
2023/05/31 06:18:36;;;;;;;0.47;0.30;;;18.20;1.00;;;;;;5036781;28;20060;-88
2023/05/31 06:21:01;;;;;;;1.77;0.60;;;18.10;1.00;;;;;;5019282;28;20049;-87
2023/05/31 06:23:28;;;;;;;0.68;0.68;;;18.20;1.00;;;;;;5017567;28;20073;-88
2023/05/31 06:25:54;;;;;;;0.68;0.68;;;18.10;1.00;;;;;;5024896;28;20674;-87
2023/05/31 06:28:20;;;;;;;0.50;0.50;;;17.90;1.00;;;;;;4997857;28;20089;-87
2023/05/31 06:30:46;;;;;;;3.15;0.75;;;17.80;1.00;;;;;;5015483;28;20061;-86
2023/05/31 06:33:13;;;;;;;0.70;0.57;;;17.60;1.00;;;;;;4998096;28;20480;-85
2023/05/31 06:35:40;;;;;;;0.17;0.17;;;17.50;1.00;;;;;;5013076;28;20041;-86
2023/05/31 06:38:07;;;;;;;0.63;0.63;;;17.50;1.00;;;;;;5000510;28;20053;-85
2023/05/31 06:40:33;;;;;;;0.60;0.60;;;17.30;1.00;;;;;;5014217;28;20132;-86
2023/05/31 06:42:58;;;;;;;1.42;0.60;;;17.20;1.00;;;;;;5022489;28;20057;-86
2023/05/31 06:45:24;;;;;;;0.32;0.30;;;17.00;1.00;;;;;;5003853;28;20049;-87
2023/05/31 06:47:50;;;;;;;0.52;0.52;;;17.10;1.00;;;;;;5034272;28;20052;-86
2023/05/31 06:50:16;;;;;;;1.25;0.63;;;17.10;1.00;;;;;;5001002;28;20058;-85
2023/05/31 06:52:41;;;;;;;0.60;0.52;;;17.00;1.00;;;;;;5016113;28;20120;-86
2023/05/31 06:55:08;;;;;;;0.88;0.60;;;17.10;1.00;;;;;;5016900;28;20040;-87
2023/05/31 06:57:34;;;;;;;1.20;0.60;;;17.10;1.00;;;;;;5018838;28;20080;-87
2023/05/31 06:59:59;;;;;;;1.13;0.65;;;17.10;1.00;;;;;;5030830;28;20077;-87
2023/05/31 07:02:27;;;;;;;0.40;0.40;;;17.40;1.00;;;;;;5013576;28;20065;-85
2023/05/31 07:04:52;;;;;;;0.30;0.30;;;17.50;1.00;;;;;;5035316;28;20084;-87
2023/05/31 07:07:18;;;;;;;0.40;0.30;;;17.70;1.00;;;;;;5036267;28;20050;-88
2023/05/31 07:09:44;;;;;;;0.45;0.40;;;18.00;1.00;;;;;;5002339;28;20049;-92
2023/05/31 07:12:10;;;;;;;;;;;18.20;1.00;;;;;;5003857;28;20096;-90
2023/05/31 07:14:36;;;;;;;0.38;0.30;;;18.50;1.00;;;;;;5013345;28;19987;-92
2023/05/31 07:17:07;;;;;;;0.75;0.63;;;18.80;1.00;;;;;;5015387;28;20500;-93
2023/05/31 07:19:45;;;;;;;0.50;0.40;;;19.20;1.00;;;;;;4983054;28;20042;-91
2023/05/31 07:22:14;;;;;;;0.70;0.40;;;19.30;1.00;;;;;;4999090;28;20081;-89
2023/05/31 07:24:40;;;;;;;0.43;0.40;;;19.50;1.00;;;;;;4995842;28;21301;-88
2023/05/31 07:27:06;;;;;;;;;;;19.40;1.00;;;;;;5014339;28;20065;-89
2023/05/31 07:29:34;;;;;;;0.40;0.40;;;19.50;99.90;;;;;;4978523;28;20553;-89
2023/05/31 07:32:09;;;;;;;0.45;0.45;;;19.70;1.00;;;;;;4991577;28;20118;-90
2023/05/31 07:34:35;;;;;;;0.35;0.35;;;19.70;99.90;;;;;;5004133;28;20081;-90
2023/05/31 07:37:00;;;;;;;;;;;19.90;1.00;;;;;;4997616;28;20192;-90
2023/05/31 07:39:26;;;;;;;0.88;0.57;;;19.40;99.90;;;;;;4996999;28;20391;-90
2023/05/31 07:41:52;;;;;;;0.38;0.30;;;20.10;1.00;;;;;;4997141;28;20183;-90
2023/05/31 07:44:26;;;;;;;0.47;0.45;;;20.20;1.00;;;;;;4996068;28;20104;-89
2023/05/31 07:46:54;;;;;;;1.33;0.77;;;20.50;1.00;;;;;;4981427;28;20121;-90
2023/05/31 07:49:20;;;;;;;0.45;0.45;;;20.40;1.00;;;;;;5013676;28;20065;-90
2023/05/31 07:51:50;;;;;;;;;;;20.40;99.90;;;;;;4998013;28;20042;-89
2023/05/31 07:54:16;;;;;;;0.85;0.85;;;20.40;1.00;;;;;;4978751;28;19928;-89
2023/05/31 07:56:47;;;;;;;1.20;0.88;;;20.40;1.00;;;;;;4994663;28;20050;-90
2023/05/31 07:59:15;;;;;;;0.85;0.75;;;20.30;99.90;;;;;;4961715;28;20050;-89
2023/05/31 08:01:46;;;;;;;1.63;0.90;;;20.10;99.90;;;;;;4994131;28;20082;-90
2023/05/31 08:04:12;;;;;;;0.30;0.30;;;20.30;99.90;;;;;;4976359;28;20054;-90
2023/05/31 08:06:38;;;;;;;;;;;20.20;99.90;;;;;;4993677;28;20137;-89
2023/05/31 08:09:09;;;;;;;0.70;0.65;;;20.40;1.00;;;;;;4978183;28;19922;-87
2023/05/31 08:11:36;;;;;;;0.35;0.30;;;20.50;99.90;;;;;;4969462;28;20530;-87
2023/05/31 08:14:05;;;;;;;0.35;0.35;;;20.70;99.90;;;;;;5018248;28;20053;-87
2023/05/31 08:16:32;;;;;;;0.63;0.40;;;20.80;99.90;;;;;;5012359;28;20073;-89
2023/05/31 08:18:58;;;;;;;0.60;0.40;;;21.00;99.90;;;;;;5007408;28;20573;-91
2023/05/31 08:21:24;;;;;;;0.40;0.32;;;21.20;99.90;;;;;;4997903;28;20133;-92
2023/05/31 08:23:50;;;;;;;0.40;0.40;;;21.50;99.90;;;;;;5009775;28;20077;-91
2023/05/31 08:26:16;;;;;;;0.52;0.43;;;21.60;99.90;;;;;;5012074;28;20491;-91
2023/05/31 08:28:42;;;;;;;0.77;0.40;;;21.70;99.90;;;;;;5011767;28;20086;-90
2023/05/31 08:31:08;;;;;;;0.40;0.40;;;21.60;1.00;;;;;;4979108;28;20092;-92
2023/05/31 08:33:34;;;;;;;0.25;0.20;;;21.70;99.90;;;;;;5011463;28;20042;-92
2023/05/31 08:36:01;;;;;;;0.52;0.40;;;21.80;99.90;;;;;;4997408;28;20218;-92
2023/05/31 08:38:30;;;;;;;0.35;0.32;;;21.90;99.90;;;;;;4997932;28;20495;-92
2023/05/31 08:41:00;;;;;;;1.17;0.32;;;22.10;99.90;;;;;;5014284;28;20046;-93
2023/05/31 08:43:34;;;;;;;0.40;0.40;;;21.90;47.30;;;;;;5014972;28;20043;-93
2023/05/31 08:46:12;;;;;;;0.55;0.50;;;21.80;99.90;;;;;;5000148;28;20057;-95
2023/05/31 08:49:08;;;;;;;0.30;0.30;;;21.30;1.00;;;;;;4996325;28;20057;-94
2023/05/31 08:51:43;;;;;;;0.80;0.68;;;21.80;99.90;;;;;;4994338;28;20050;-94
2023/05/31 08:54:13;;;;;;;1.27;0.40;;;21.90;17.20;;;;;;4997874;28;20057;-95
2023/05/31 08:56:50;;;;;;;0.47;0.47;;;22.00;55.30;;;;;;4979787;28;20046;-93
2023/05/31 08:59:20;;;;;;;0.93;0.50;;;22.20;99.90;;;;;;4977078;28;20046;-94
2023/05/31 09:01:52;;;;;;;0.30;0.30;;;22.40;1.00;;;;;;4976160;28;20058;-94
2023/05/31 09:04:23;;;;;;;0.98;0.65;;;22.30;99.90;;;;;;4976547;28;20046;-95
2023/05/31 09:07:07;;;;;;;0.68;0.50;;;22.20;16.50;;;;;;4962284;28;20050;-90
2023/05/31 09:09:33;;;;;;;0.60;0.60;;;22.80;99.90;;;;;;4976040;28;20054;-93
2023/05/31 09:12:00;;;;;;;;;;;22.30;1.00;;;;;;4977843;28;20129;-88
2023/05/31 09:14:29;;;;;;;0.50;0.38;;;22.30;99.90;;;;;;4978938;28;19928;-88
2023/05/31 09:16:55;;;;;;;0.30;0.30;;;22.80;1.00;;;;;;4995984;28;20050;-89
2023/05/31 09:19:20;;;;;;;;;;;22.30;1.00;;;;;;4980036;28;20094;-88
2023/05/31 09:21:46;;;;;;;0.38;0.38;;;22.30;1.00;;;;;;4979195;28;20012;-87
2023/05/31 09:24:12;;;;;;;;;;;22.40;43.30;;;;;;4996177;28;20058;-88
2023/05/31 09:26:52;;;;;;;0.25;0.25;;;22.30;1.00;;;;;;4995218;28;19968;-88
2023/05/31 09:29:22;;;;;;;0.50;0.50;;;22.70;1.00;;;;;;4995527;28;20133;-88
2023/05/31 09:31:48;;;;;;;0.22;0.22;;;22.70;99.90;;;;;;5014556;28;20046;-89
2023/05/31 09:34:25;;;;;;;;;;;22.80;99.90;;;;;;5014902;28;20089;-88
2023/05/31 09:36:52;;;;;;;0.30;0.30;;;22.40;99.90;;;;;;4998438;28;19944;-88
2023/05/31 09:39:23;;;;;;;0.15;0.15;;;22.60;99.90;;;;;;5015021;28;20046;-87
2023/05/31 09:41:56;;;;;;;0.60;0.60;;;22.60;99.90;;;;;;5015754;28;20081;-88
2023/05/31 09:44:31;;;;;;;0.40;0.40;;;22.60;1.00;;;;;;5015333;28;20041;-88
2023/05/31 09:47:07;;;;;;;0.73;0.73;;;22.20;99.90;;;;;;5014807;28;20402;-89
2023/05/31 09:49:33;;;;;;;0.40;0.40;;;22.80;78.90;;;;;;4998184;28;20511;-91
2023/05/31 09:51:59;;;;;;;;;;;22.70;99.90;;;;;;5017323;28;20054;-90
2023/05/31 09:54:26;;;;;;;0.43;0.30;;;22.80;99.90;;;;;;5017124;28;20395;-90
2023/05/31 09:56:52;;;;;;;0.63;0.40;;;22.90;3.90;;;;;;4999805;28;20046;-91
2023/05/31 09:59:18;;;;;;;0.28;0.28;;;22.90;99.90;;;;;;4997857;28;20061;-90
2023/05/31 10:01:45;;;;;;;0.20;0.20;;;22.80;99.90;;;;;;5013479;28;20052;-87
2023/05/31 10:04:12;;;;;;;0.65;0.50;;;23.00;99.90;;;;;;4998176;28;20484;-89
2023/05/31 10:06:37;;;;;;;0.40;0.40;;;23.00;99.90;;;;;;5014625;28;20046;-88
2023/05/31 10:09:07;;;;;;;0.75;0.55;;;23.00;82.30;;;;;;5014829;28;20374;-87
2023/05/31 10:11:37;;;;;;;0.60;0.60;;;23.00;1.00;;;;;;5014037;28;20405;-88
2023/05/31 10:14:13;;;;;;;2.70;0.40;;;23.20;59.90;;;;;;4966357;28;20054;-87
2023/05/31 10:16:45;;;;;;;1.13;0.50;;;23.10;1.00;;;;;;4994539;28;20058;-87
2023/05/31 10:19:18;;;;;;;2.65;0.50;;;22.90;23.90;;;;;;4994951;28;20053;-88
2023/05/31 10:21:45;;;;;;;0.20;0.20;;;22.70;99.90;;;;;;4994516;28;20042;-88
2023/05/31 10:24:23;;;;;;;1.92;0.40;;;22.70;99.90;;;;;;4998114;28;20042;-87
2023/05/31 10:26:59;;;;;;;0.40;0.40;;;22.90;99.90;;;;;;4994399;28;20413;-88
2023/05/31 10:29:31;;;;;;;0.35;0.30;;;23.00;99.90;;;;;;4977791;28;20068;-88
2023/05/31 10:32:06;;;;;;;0.40;0.40;;;23.20;99.90;;;;;;4993308;28;20096;-88
2023/05/31 10:34:36;;;;;;;0.52;0.52;;;23.20;1.00;;;;;;4994691;28;20076;-88
2023/05/31 10:37:05;;;;;;;1.55;0.60;;;22.50;99.90;;;;;;4962047;28;20493;-87
2023/05/31 10:40:05;;;;;;;0.50;0.50;;;23.40;99.90;;;;;;4978149;28;20050;-86
2023/05/31 10:42:45;;;;;;;0.77;0.50;;;23.40;82.90;;;;;;4994583;28;20058;-86
2023/05/31 10:45:29;;;;;;;0.75;0.52;;;23.30;1.00;;;;;;4978084;28;20046;-87
2023/05/31 10:48:03;;;;;;;0.73;0.70;;;23.30;1.00;;;;;;4994703;28;20513;-87
2023/05/31 10:50:28;;;;;;;0.50;0.50;;;23.30;11.80;;;;;;4994106;28;20496;-87
2023/05/31 10:53:10;;;;;;;;;;;23.30;1.00;;;;;;4962174;28;20259;-86
2023/05/31 10:55:43;;;;;;;0.38;0.38;;;23.30;99.90;;;;;;4977588;28;19922;-87
2023/05/31 10:58:29;;;;;;;0.60;0.60;;;23.50;99.90;;;;;;4977588;28;20516;-86
2023/05/31 11:00:56;;;;;;;0.70;0.57;;;23.50;99.90;;;;;;4992293;28;20053;-86
2023/05/31 11:03:27;;;;;;;0.70;0.68;;;23.40;1.00;;;;;;4961787;28;20115;-86
2023/05/31 11:05:57;;;;;;;0.60;0.60;;;23.30;90.40;;;;;;4994021;28;20054;-89
2023/05/31 11:08:23;;;;;;;0.60;0.50;;;23.40;99.90;;;;;;4994395;28;20096;-85
2023/05/31 11:10:49;;;;;;;1.42;0.90;;;23.50;93.90;;;;;;4945347;28;20053;-86
2023/05/31 11:13:16;;;;;;;;;;;23.40;99.90;;;;;;4995738;28;20050;-86
2023/05/31 11:15:44;;;;;;;0.40;0.40;;;23.40;99.90;;;;;;5016143;28;19921;-86
2023/05/31 11:18:22;;;;;;;0.47;0.47;;;23.40;99.90;;;;;;4984234;28;20128;-85
2023/05/31 11:20:48;;;;;;;1.23;1.05;;;23.40;99.90;;;;;;5015938;28;20186;-86
2023/05/31 11:23:16;;;;;;;;;;;23.30;99.90;;;;;;5000672;28;20136;-86
2023/05/31 11:25:43;;;;;;;0.52;0.52;;;23.30;99.90;;;;;;4999541;28;20382;-87
2023/05/31 11:28:09;;;;;;;0.70;0.70;;;23.40;99.90;;;;;;5000224;28;20050;-86
2023/05/31 11:30:36;;;;;;;1.13;0.80;;;23.30;99.90;;;;;;5014444;28;20052;-85
2023/05/31 11:33:03;;;;;;;0.60;0.60;;;23.50;99.90;;;;;;4999403;28;20053;-85
2023/05/31 11:35:33;;;;;;;0.35;0.30;;;23.60;51.80;;;;;;5015152;28;20045;-85
2023/05/31 11:38:04;;;;;;;1.15;0.88;;;23.40;1.00;;;;;;4999789;28;20048;-86
2023/05/31 11:40:31;;;;;;;1.02;0.85;;;23.30;1.00;;;;;;4999771;28;20064;-87
2023/05/31 11:43:03;;;;;;;0.68;0.68;;;23.30;99.90;;;;;;4999611;28;20053;-87
2023/05/31 11:45:32;;;;;;;0.82;0.70;;;23.30;99.90;;;;;;5016180;28;20056;-87
2023/05/31 11:48:38;;;;;;;0.43;0.43;;;23.40;99.90;;;;;;5015378;28;20467;-87
2023/05/31 11:51:04;;;;;;;0.73;0.38;;;23.50;1.00;;;;;;5010934;28;20049;-88
2023/05/31 11:53:30;;;;;;;0.55;0.55;;;23.30;15.10;;;;;;5016213;28;20045;-86
2023/05/31 11:55:58;;;;;;;;;;;23.30;92.40;;;;;;4999325;28;20375;-89
2023/05/31 11:58:25;;;;;;;0.75;0.70;;;23.40;99.90;;;;;;5014992;28;20395;-86
2023/05/31 12:00:51;;;;;;;0.52;0.40;;;23.40;99.90;;;;;;5014580;28;20041;-87
2023/05/31 12:03:19;;;;;;;0.95;0.50;;;23.30;99.90;;;;;;5015950;28;20037;-88
2023/05/31 12:05:56;;;;;;;0.43;0.43;;;23.10;6.10;;;;;;4999429;28;20060;-91
2023/05/31 12:08:21;;;;;;;0.75;0.50;;;23.20;69.70;;;;;;4999446;28;20132;-86
2023/05/31 12:10:47;;;;;;;0.52;0.52;;;23.10;99.90;;;;;;5015386;28;20137;-85
2023/05/31 12:13:17;;;;;;;;;;;23.10;99.90;;;;;;4999291;28;20056;-85
2023/05/31 12:15:52;;;;;;;0.82;0.57;;;23.10;99.90;;;;;;5015194;28;19928;-86
2023/05/31 12:18:17;;;;;;;1.00;0.90;;;23.10;29.00;;;;;;5033036;28;20435;-91
2023/05/31 12:20:43;;;;;;;0.32;0.30;;;23.00;99.90;;;;;;4999356;28;20056;-87
2023/05/31 12:23:12;;;;;;;;;;;23.10;99.90;;;;;;4999074;28;20052;-86
2023/05/31 12:25:45;;;;;;;0.50;0.50;;;23.20;99.90;;;;;;4999114;28;20256;-85
2023/05/31 12:28:11;;;;;;;0.45;0.45;;;23.10;1.00;;;;;;5015870;28;20133;-86
2023/05/31 12:30:45;;;;;;;0.43;0.43;;;23.20;1.00;;;;;;5015069;28;20402;-86
2023/05/31 12:33:11;;;;;;;0.57;0.55;;;23.20;99.90;;;;;;5014403;28;20400;-87
2023/05/31 12:35:42;;;;;;;1.42;0.95;;;23.20;99.90;;;;;;4998981;28;20046;-86
2023/05/31 12:38:07;;;;;;;0.55;0.35;;;23.20;48.40;;;;;;5015003;28;20041;-86
2023/05/31 12:40:41;;;;;;;0.40;0.40;;;23.20;99.90;;;;;;5015158;28;20116;-87
2023/05/31 12:43:18;;;;;;;0.40;0.40;;;23.10;1.00;;;;;;4998901;28;20515;-87
2023/05/31 12:45:43;;;;;;;0.95;0.60;;;22.60;99.90;;;;;;5015251;28;20089;-87
2023/05/31 12:48:12;;;;;;;;;;;23.30;54.20;;;;;;5015352;28;20084;-87
2023/05/31 12:50:47;;;;;;;0.63;0.60;;;23.50;1.00;;;;;;5015229;28;19927;-87
2023/05/31 12:53:16;;;;;;;0.50;0.50;;;23.70;1.00;;;;;;4998712;28;20056;-87
2023/05/31 12:55:49;;;;;;;0.50;0.50;;;23.70;99.90;;;;;;4998662;28;20517;-86
2023/05/31 12:58:15;;;;;;;1.55;0.52;;;23.70;1.00;;;;;;4999361;28;20057;-87
2023/05/31 13:00:43;;;;;;;;;;;23.80;1.00;;;;;;5013390;28;20052;-86
2023/05/31 13:03:13;;;;;;;1.05;0.52;;;23.80;1.00;;;;;;5013661;28;20367;-86
2023/05/31 13:05:39;;;;;;;0.40;0.40;;;23.70;99.90;;;;;;4999465;28;20466;-86